Station: Christmas Island  

  Atmospheric Gas Attenuation - ITU Rec 676-11   ----------------- dB/100km -----------------
Date Time Temp RH % AH g/m3 Dew Point Wind Direction Speed kph Gust kph Barometer mB Rainfall Since 9am 24GHz 47GHz 76GHz 122GHz 134GHz 241GHz
08/05 09:20 26.7 87 22.02 24.4 20 28 1010.8 0 47.2 44.9 89.8 237.8 266.6 926.2
08/05 09:10 26.6 86 21.65 24.1 17 20 1010.7 0 46.4 44.3 88.1 233.2 260.9 906.6
08/05 09:00 26.8 84 21.38 23.9 19 30 1010.8 0 45.8 43.6 86.5 229.1 255.9 889.2
08/05 08:50 26.6 86 21.65 24.1 15 22 1010.7 0 46.4 44.3 88.1 233.2 260.9 906.6
08/05 08:40 26.8 87 22.14 24.5 13 22 1010.6 0 47.5 45.1 90.3 239.0 268.1 931.6
08/05 08:30 26.6 84 21.15 23.7 19 26 1010.6 0 45.4 43.3 85.6 226.7 252.9 878.8
08/05 08:20 26.6 87 21.9 24.3 20 24 1010.5 0 47.0 44.7 89.3 236.4 264.9 920.5
08/05 08:10 26.3 86 21.29 23.8 15 24 1010.4 0 45.7 43.7 86.6 229.4 256.1 889.9
08/05 08:00 26.1 88 21.54 24 17 24 1010.3 0 46.3 44.3 88.1 233.2 260.8 906.3
08/05 07:50 26.1 88 21.54 24 15 19 1010.3 0 46.3 44.3 88.1 233.2 260.8 906.3
08/05 07:40 25.9 88 21.3 23.8 17 20 1010.3 0 45.8 43.9 87.1 230.7 257.7 895.2
08/05 07:30 25.8 88 21.19 23.7 15 26 1010.2 0 45.6 43.8 86.7 229.5 256.2 890.2
08/05 07:20 25.7 88 21.07 23.6 13 20 1010.2 0 45.3 43.6 86.2 228.3 254.7 884.7
08/05 07:10 25.7 88 21.07 23.6 19 22 1010.2 0 45.3 43.6 86.2 228.3 254.7 884.7
08/05 07:00 25.6 86 20.47 23.1 17 26 1010.2 0 44.0 42.4 83.4 220.8 245.4 852.5
08/05 06:50 25.8 89 21.43 23.8 15 20 1010.1 0 46.1 44.2 87.9 232.7 260.1 903.6
08/05 06:40 25.8 89 21.43 23.8 13 15 1009.9 0 46.1 44.2 87.9 232.7 260.1 903.5
08/05 06:30 25.7 88 21.07 23.6 17 24 1009.9 0 45.3 43.6 86.2 228.2 254.6 884.5
08/05 06:20 25.7 90 21.55 23.9 15 19 1009.9 0 46.3 44.5 88.6 234.6 262.4 911.5
08/05 06:10 25.7 89 21.31 23.7 15 19 1013.1 0 45.8 44.2 87.6 231.9 259.0 899.8
08/05 06:00 25.6 89 21.19 23.7 15 24 1009.8 0 45.6 43.8 86.9 230.1 256.9 892.3
08/05 05:50 25.6 88 20.95 23.5 19 24 1009.8 0 45.1 43.4 85.7 226.9 253.0 878.9
08/05 05:40 25.6 88 20.95 23.5 20 22 1009.8 0 45.1 43.4 85.7 226.9 253.0 878.9
08/05 05:30 25.7 90 21.55 23.9 15 26 1009.7 0 46.3 44.5 88.6 234.5 262.3 911.3
08/05 05:20 25.7 88 21.07 23.6 15 17 1009.8 0 45.3 43.5 86.2 228.2 254.6 884.4
08/05 05:10 25.7 89 21.31 23.7 13 17 1009.7 0 45.8 44.0 87.4 231.3 258.4 897.8
08/05 05:00 25.8 90 21.67 24 17 26 1009.7 0 46.6 44.7 89.1 235.8 263.9 916.9
08/05 04:50 25.7 88 21.07 23.6 17 22 1009.8 0 45.3 43.5 86.2 228.2 254.6 884.4
08/05 04:40 25.7 88 21.07 23.6 20 26 1009.8 0 45.3 43.5 86.2 228.2 254.6 884.4
08/05 04:30 25.7 89 21.31 23.7 17 28 1009.7 0 45.8 44.0 87.4 231.3 258.4 897.8
08/05 04:20 25.7 88 21.07 23.6 15 19 1009.8 0 45.3 43.5 86.2 228.2 254.6 884.4
08/05 04:10 25.8 89 21.43 23.8 17 20 1009.8 0 46.1 44.2 87.9 232.6 260.0 903.4
08/05 04:00 25.8 89 21.43 23.8 15 26 1009.8 0 46.1 44.2 87.9 232.6 260.0 903.4
08/05 03:50 25.7 89 21.31 23.7 20 28 1009.8 0 45.8 44.0 87.4 231.4 258.5 897.9
08/05 03:40 25.7 89 21.31 23.7 15 20 1009.8 0 45.8 44.0 87.4 231.4 258.5 897.9
08/05 03:30 25.7 88 21.07 23.6 17 30 1009.9 0 45.3 43.6 86.2 228.2 254.6 884.5
08/05 03:20 25.8 88 21.19 23.7 19 28 1009.9 0 45.6 43.7 86.7 229.5 256.2 890.0
08/05 03:10 25.8 89 21.43 23.8 15 17 1010 0 46.1 44.2 87.9 232.7 260.1 903.5
08/05 03:00 25.9 88 21.3 23.8 22 32 1010 0 45.8 43.9 87.1 230.6 257.6 895.0
08/05 02:50 25.8 89 21.43 23.8 19 24 1010.1 0 46.1 44.2 87.9 232.7 260.1 903.6
08/05 02:40 25.9 89 21.55 23.9 19 24 1010.2 0 46.3 44.4 88.4 234.0 261.7 909.2
08/05 02:30 25.8 88 21.19 23.7 22 33 1010.2 0 45.6 43.8 86.7 229.5 256.2 890.2
08/05 02:20 25.8 89 21.43 23.8 20 26 1010.3 0 46.1 44.2 87.9 232.7 260.1 903.7
08/05 02:10 25.8 88 21.19 23.7 20 24 1010.4 0 45.6 43.8 86.7 229.6 256.3 890.3
08/05 02:00 25.8 90 21.67 24 19 30 1010.4 0 46.6 44.7 89.1 235.9 264.0 917.3
08/05 01:50 25.9 90 21.79 24.1 20 28 1010.5 0 46.8 44.9 89.6 237.2 265.7 922.9
08/05 01:40 25.8 89 21.43 23.8 20 24 1010.6 0 46.1 44.2 87.9 232.8 260.2 903.9
08/05 01:30 25.8 89 21.43 23.8 19 32 1010.6 0 46.1 44.2 87.9 232.8 260.2 903.9
08/05 01:20 25.9 89 21.55 23.9 20 26 1010.7 0 46.3 44.4 88.4 234.1 261.8 909.5
08/05 01:10 25.8 88 21.19 23.7 22 28 1010.8 0 45.5 43.8 86.8 229.6 256.3 890.5
08/05 01:00 26 88 21.42 23.9 22 32 1011.2 0 46.0 44.1 87.7 232.1 259.4 901.3
08/05 00:50 26 88 21.42 23.9 24 32 1011.2 0 46.0 44.1 87.7 232.1 259.4 901.3
08/05 00:40 26 89 21.67 24 24 35 1011.3 0 46.5 44.6 88.9 235.4 263.5 915.4
08/05 00:30 25.9 89 21.55 23.9 20 32 1011.2 0 46.3 44.5 88.4 234.2 261.9 909.8
08/05 00:20 26 88 21.42 23.9 19 22 1011.4 0 46.0 44.2 87.7 232.2 259.4 901.4
08/05 00:10 26 90 21.91 24.2 20 28 1011.3 0 47.1 45.1 90.1 238.6 267.4 929.0
08/05 00:00 26 89 21.67 24 20 35 1011.2 0 46.5 44.6 88.9 235.4 263.5 915.3
07/05 23:50 26 88 21.42 23.9 22 32 1011.3 0 46.0 44.1 87.7 232.1 259.4 901.3
07/05 23:40 26 88 21.42 23.9 24 28 1011.3 0 46.0 44.1 87.7 232.1 259.4 901.3
07/05 23:30 26.1 88 21.54 24 20 30 1011.2 0 46.3 44.3 88.2 233.4 261.0 906.8
07/05 23:20 26.1 88 21.54 24 20 30 1011.4 0 46.3 44.3 88.2 233.4 261.0 906.9
07/05 23:10 26.1 88 21.54 24 22 30 1011.3 0 46.3 44.3 88.2 233.4 261.0 906.9
07/05 23:00 26.1 88 21.54 24 22 35 1011.2 0 46.3 44.3 88.2 233.4 261.0 906.8
07/05 22:50 26.1 88 21.54 24 20 28 1011.3 0 46.3 44.3 88.2 233.4 261.0 906.9
07/05 22:40 26 87 21.18 23.7 26 33 1011.3 0 45.5 43.7 86.5 229.0 255.6 887.9
07/05 22:30 26.2 88 21.66 24.1 20 30 1011.2 0 46.5 44.5 88.6 234.7 262.6 912.3
07/05 22:20 26.1 87 21.3 23.8 19 26 1013.1 0 45.7 43.9 87.1 230.6 257.5 894.5
07/05 22:10 26.2 87 21.42 23.9 28 32 1011.5 0 46.0 44.1 87.5 231.6 258.8 899.0
07/05 22:00 26.2 87 21.42 23.9 22 33 1011.5 0 46.0 44.1 87.5 231.6 258.8 899.0
07/05 21:50 26.2 86 21.17 23.7 24 28 1011.5 0 45.5 43.6 86.2 228.3 254.8 885.1
07/05 21:40 26.2 88 21.66 24.1 19 24 1011.5 0 46.5 44.5 88.7 234.7 262.6 912.5
07/05 21:30 26.2 86 21.17 23.7 20 30 1011.4 0 45.5 43.6 86.2 228.3 254.7 885.0
07/05 21:20 26.4 88 21.91 24.2 19 28 1011.3 0 47.0 44.9 89.6 237.4 265.9 924.0
07/05 21:10 26.3 89 22.03 24.3 20 33 1011 0 47.3 45.2 90.3 239.2 268.2 931.8
07/05 21:00 26.3 88 21.79 24.2 20 33 1011 0 46.8 44.7 89.2 236.0 264.3 918.3
07/05 20:50 26.2 87 21.42 23.9 19 22 1011 0 46.0 44.0 87.4 231.5 258.7 898.7
07/05 20:40 26.2 87 21.42 23.9 22 26 1010.9 0 46.0 44.0 87.4 231.5 258.7 898.7
07/05 20:30 26.3 87 21.54 24 19 28 1010.8 0 46.2 44.2 87.9 232.7 260.2 904.1
07/05 20:20 26.3 87 21.54 24 19 28 1010.8 0 46.2 44.2 87.9 232.7 260.2 904.1
07/05 20:10 26.3 87 21.54 24 22 32 1010.7 0 46.2 44.2 87.9 232.7 260.2 904.1
07/05 20:00 26.3 88 21.79 24.2 17 32 1010.4 0 46.8 44.7 89.1 235.9 264.2 917.9
07/05 19:50 26.3 89 22.03 24.3 19 24 1010.3 0 47.3 45.2 90.3 239.1 268.1 931.4
07/05 19:40 26.2 89 21.91 24.2 17 20 1010.1 0 47.0 45.0 89.8 237.8 266.5 925.8
07/05 19:30 26.3 88 21.79 24.2 17 30 1010 0 46.8 44.7 89.1 235.9 264.1 917.7
07/05 19:20 26.3 87 21.54 24 17 19 1010 0 46.2 44.2 87.8 232.6 260.1 903.7
07/05 19:10 26.4 88 21.91 24.2 20 30 1009.8 0 47.0 44.8 89.5 237.1 265.7 923.1
07/05 19:00 26.4 88 21.91 24.2 17 32 1009.6 0 47.0 44.8 89.5 237.1 265.6 923.0
07/05 18:50 26.4 88 21.91 24.2 17 20 1009.5 0 47.0 44.8 89.5 237.0 265.6 922.9
07/05 18:40 26.4 87 21.66 24.1 20 26 1009.5 0 46.5 44.3 88.3 233.7 261.6 908.9
07/05 18:30 26.4 86 21.41 23.9 13 28 1009.4 0 46.0 43.8 87.0 230.4 257.5 894.8
07/05 18:20 26.6 87 21.9 24.3 19 24 1009.2 0 47.0 44.7 89.2 236.2 264.7 919.7
07/05 18:10 26.5 87 21.78 24.2 13 17 1009 0 46.7 44.5 88.7 234.9 263.1 914.1
07/05 18:00 26.7 86 21.77 24.2 17 24 1008.9 0 46.7 44.4 88.4 234.1 262.2 911.0
07/05 17:50 26.6 86 21.65 24.1 19 20 1008.9 0 46.4 44.2 88.0 232.9 260.6 905.5
07/05 17:40 26.9 86 22.01 24.4 17 20 1008.9 0 47.2 44.7 89.4 236.7 265.3 922.0
07/05 17:30 26.7 85 21.52 24 19 30 1008.8 0 46.2 43.9 87.2 230.9 258.2 897.0
07/05 17:20 26.7 88 22.28 24.5 17 22 1008.8 0 47.8 45.4 91.0 240.9 270.4 939.6
07/05 17:10 26.7 87 22.02 24.4 15 17 1008.8 0 47.2 44.8 89.7 237.4 266.2 925.0
07/05 17:00 26.9 86 22.01 24.4 20 30 1008.6 0 47.2 44.7 89.4 236.6 265.3 921.8
07/05 16:50 26.8 86 21.89 24.3 17 32 1008.7 0 46.9 44.5 88.9 235.4 263.7 916.4

Last Refresh: 08-May-2026 11:03:00

Bureau of Meteorology